Time;durP1;ratioP1;P1;durP2;ratioP2;P2;SDS_P1;SDS_P2;PMS_P1;PMS_P2;Temp;Humidity;BMP_temperature;BMP_pressure;BME280_temperature;BME280_humidity;BME280_pressure;Samples;Min_cycle;Max_cycle;Signal;HPM_P1;HPM_P2
2023/05/12 00:02:04;;;;;;;8.95;6.25;;;;;;;;;;6211243;23;20020;-83
2023/05/12 00:04:31;;;;;;;12.93;5.90;;;;;;;;;;6210841;23;20052;-83
2023/05/12 00:07:06;;;;;;;13.52;6.90;;;;;;;;;;6209769;23;20386;-83
2023/05/12 00:09:33;;;;;;;12.27;6.75;;;;;;;;;;6209698;23;20060;-84
2023/05/12 00:12:08;;;;;;;11.57;6.57;;;;;;;;;;6209953;23;20067;-83
2023/05/12 00:14:35;;;;;;;;;;;;;;;;;;6210718;23;20093;-84
2023/05/12 00:17:03;;;;;;;9.15;6.75;;;;;;;;;;6210515;23;19985;-83
2023/05/12 00:19:49;;;;;;;15.93;6.70;;;;;;;;;;6209777;23;20122;-83
2023/05/12 00:22:25;;;;;;;13.45;7.53;;;;;;;;;;6210590;23;20035;-82
2023/05/12 00:24:59;;;;;;;10.45;6.97;;;;;;;;;;6209268;23;20035;-81
2023/05/12 00:27:26;;;;;;;8.30;7.30;;;;;;;;;;6210970;23;20358;-82
2023/05/12 00:29:53;;;;;;;12.70;7.22;;;;;;;;;;6209220;23;20025;-82
2023/05/12 00:32:27;;;;;;;12.77;6.55;;;;;;;;;;6209999;23;20064;-82
2023/05/12 00:34:55;;;;;;;13.40;7.93;;;;;;;;;;6209856;23;20028;-81
2023/05/12 00:37:29;;;;;;;12.82;8.05;;;;;;;;;;6208511;23;20020;-82
2023/05/12 00:39:56;;;;;;;15.13;7.47;;;;;;;;;;6209695;23;20135;-82
2023/05/12 00:42:24;;;;;;;19.02;8.02;;;;;;;;;;6210236;23;20024;-82
2023/05/12 00:44:57;;;;;;;12.65;8.00;;;;;;;;;;6209565;23;20079;-82
2023/05/12 00:47:24;;;;;;;20.00;8.38;;;;;;;;;;6209711;23;20020;-81
2023/05/12 00:49:52;;;;;;;13.45;7.05;;;;;;;;;;6183482;23;20063;-81
2023/05/12 00:52:26;;;;;;;15.45;7.43;;;;;;;;;;6210525;23;20112;-82
2023/05/12 00:54:54;;;;;;;18.00;7.43;;;;;;;;;;6209936;23;20079;-82
2023/05/12 00:57:22;;;;;;;15.93;7.18;;;;;;;;;;6210773;23;20087;-81
2023/05/12 00:59:55;;;;;;;12.63;6.80;;;;;;;;;;6210006;23;20103;-82
2023/05/12 01:02:29;;;;;;;14.07;6.90;;;;;;;;;;6211786;23;20525;-82
2023/05/12 01:05:04;;;;;;;13.30;7.63;;;;;;;;;;6184798;23;20064;-82
2023/05/12 01:07:38;;;;;;;16.48;7.28;;;;;;;;;;6208042;23;20398;-82
2023/05/12 01:10:18;;;;;;;11.27;7.03;;;;;;;;;;6209062;23;20063;-82
2023/05/12 01:12:52;;;;;;;11.95;6.85;;;;;;;;;;6210051;23;20422;-82
2023/05/12 01:15:19;;;;;;;11.35;6.93;;;;;;;;;;6209220;23;20021;-82
2023/05/12 01:17:57;;;;;;;18.05;6.43;;;;;;;;;;6207254;23;20107;-82
2023/05/12 01:20:31;;;;;;;15.43;7.28;;;;;;;;;;6182902;23;20025;-81
2023/05/12 01:23:05;;;;;;;13.88;7.40;;;;;;;;;;6210260;23;20616;-82
2023/05/12 01:25:33;;;;;;;16.10;8.40;;;;;;;;;;6209234;23;20048;-83
2023/05/12 01:28:07;;;;;;;17.85;8.52;;;;;;;;;;6209972;23;20504;-83
2023/05/12 01:30:36;;;;;;;12.18;7.68;;;;;;;;;;6210132;23;20103;-82
2023/05/12 01:33:03;;;;;;;12.35;8.73;;;;;;;;;;6209620;23;20078;-83
2023/05/12 01:35:37;;;;;;;17.45;8.20;;;;;;;;;;6209026;23;20549;-81
2023/05/12 01:38:04;;;;;;;17.55;7.63;;;;;;;;;;6208707;23;20052;-82
2023/05/12 01:40:38;;;;;;;17.50;8.05;;;;;;;;;;6209235;23;20672;-83
2023/05/12 01:43:05;;;;;;;13.55;8.90;;;;;;;;;;6208857;23;20538;-83
2023/05/12 01:45:33;;;;;;;10.85;7.78;;;;;;;;;;6209216;23;20056;-83
2023/05/12 01:48:06;;;;;;;20.88;7.70;;;;;;;;;;6209312;23;20100;-82
2023/05/12 01:50:33;;;;;;;16.27;8.20;;;;;;;;;;6209414;23;20058;-82
2023/05/12 01:53:09;;;;;;;13.15;7.28;;;;;;;;;;6206877;23;20107;-82
2023/05/12 01:55:37;;;;;;;12.95;7.70;;;;;;;;;;6207309;23;20025;-82
2023/05/12 01:58:10;;;;;;;12.40;7.57;;;;;;;;;;6206377;23;20742;-82
2023/05/12 02:00:37;;;;;;;11.30;6.45;;;;;;;;;;6180544;23;20028;-82
2023/05/12 02:03:11;;;;;;;12.43;7.70;;;;;;;;;;6206902;23;20021;-81
2023/05/12 02:05:39;;;;;;;10.30;7.15;;;;;;;;;;6206646;23;20078;-82
2023/05/12 02:08:06;;;;;;;11.57;7.45;;;;;;;;;;6181188;23;20056;-82
2023/05/12 02:10:39;;;;;;;17.33;7.57;;;;;;;;;;6203693;23;20075;-82
2023/05/12 02:13:07;;;;;;;15.10;7.97;;;;;;;;;;6205270;23;20020;-82
2023/05/12 02:15:41;;;;;;;18.50;8.32;;;;;;;;;;6207604;23;20027;-82
2023/05/12 02:18:08;;;;;;;14.90;8.45;;;;;;;;;;6206219;23;20099;-82
2023/05/12 02:20:49;;;;;;;14.13;8.15;;;;;;;;;;6205048;23;20504;-82
2023/05/12 02:23:16;;;;;;;10.63;7.60;;;;;;;;;;6204881;23;20028;-82
2023/05/12 02:25:50;;;;;;;12.68;8.50;;;;;;;;;;6204709;23;20067;-81
2023/05/12 02:28:17;;;;;;;14.65;8.45;;;;;;;;;;6207085;23;20035;-81
2023/05/12 02:30:51;;;;;;;11.35;7.97;;;;;;;;;;6207391;23;20438;-81
2023/05/12 02:33:20;;;;;;;16.05;8.50;;;;;;;;;;6207043;23;20065;-81
2023/05/12 02:35:47;;;;;;;14.40;8.02;;;;;;;;;;6206723;23;20457;-81
2023/05/12 02:38:20;;;;;;;18.95;8.77;;;;;;;;;;6206423;23;20505;-81
2023/05/12 02:40:48;;;;;;;13.50;7.55;;;;;;;;;;6206043;23;20116;-82
2023/05/12 02:43:21;;;;;;;12.38;8.13;;;;;;;;;;6180404;23;20052;-82
2023/05/12 02:45:48;;;;;;;13.02;7.50;;;;;;;;;;6206196;23;20303;-83
2023/05/12 02:48:16;;;;;;;11.05;7.38;;;;;;;;;;6207593;23;20103;-82
2023/05/12 02:50:49;;;;;;;15.07;7.47;;;;;;;;;;6206153;23;20111;-82
2023/05/12 02:53:16;;;;;;;12.77;7.93;;;;;;;;;;6206365;23;20048;-82
2023/05/12 02:55:50;;;;;;;10.80;7.07;;;;;;;;;;6206947;23;20349;-82
2023/05/12 02:58:18;;;;;;;12.20;7.32;;;;;;;;;;6206147;23;20028;-82
2023/05/12 03:00:45;;;;;;;13.48;7.70;;;;;;;;;;6206937;23;20048;-82
2023/05/12 03:03:33;;;;;;;16.40;7.38;;;;;;;;;;6206352;23;20024;-82
2023/05/12 03:06:00;;;;;;;;;;;;;;;;;;6205710;23;20361;-82
2023/05/12 03:08:35;;;;;;;10.55;6.78;;;;;;;;;;6206631;23;20309;-81
2023/05/12 03:11:02;;;;;;;;;;;;;;;;;;6206333;23;20442;-81
2023/05/12 03:13:29;;;;;;;11.50;6.82;;;;;;;;;;6205288;23;19951;-81
2023/05/12 03:16:03;;;;;;;12.50;6.72;;;;;;;;;;6181792;23;20059;-81
2023/05/12 03:18:30;;;;;;;16.65;7.32;;;;;;;;;;6208928;23;20025;-81
2023/05/12 03:21:04;;;;;;;12.65;7.70;;;;;;;;;;6208450;23;20521;-81
2023/05/12 03:23:45;;;;;;;12.50;7.72;;;;;;;;;;6206241;23;20059;-81
2023/05/12 03:26:12;;;;;;;12.35;8.23;;;;;;;;;;6207897;23;20035;-81
2023/05/12 03:28:46;;;;;;;15.82;8.27;;;;;;;;;;6207769;23;20107;-81
2023/05/12 03:31:13;;;;;;;17.98;8.90;;;;;;;;;;6208152;23;20120;-81
2023/05/12 03:33:41;;;;;;;10.65;8.20;;;;;;;;;;6209099;23;20027;-81
2023/05/12 03:36:14;;;;;;;11.77;7.82;;;;;;;;;;6207548;23;20135;-80
2023/05/12 03:38:41;;;;;;;12.57;7.63;;;;;;;;;;6208570;23;20092;-81
2023/05/12 03:41:09;;;;;;;10.18;7.28;;;;;;;;;;6208084;23;20058;-80
2023/05/12 03:43:42;;;;;;;13.23;7.63;;;;;;;;;;6207829;23;20079;-80
2023/05/12 03:46:10;;;;;;;15.02;8.40;;;;;;;;;;6207149;23;20378;-82
2023/05/12 03:48:44;;;;;;;9.20;7.53;;;;;;;;;;6208668;23;20411;-81
2023/05/12 03:51:11;;;;;;;11.70;8.20;;;;;;;;;;6206740;23;20103;-80
2023/05/12 03:53:43;;;;;;;11.98;7.32;;;;;;;;;;6209222;23;20071;-81
2023/05/12 03:56:17;;;;;;;15.25;7.53;;;;;;;;;;6208433;23;20052;-80
2023/05/12 03:58:48;;;;;;;14.38;8.27;;;;;;;;;;6206759;23;20108;-81
2023/05/12 04:01:28;;;;;;;13.35;7.47;;;;;;;;;;6207478;23;20335;-81
2023/05/12 04:03:55;;;;;;;15.80;7.47;;;;;;;;;;6206992;23;20023;-81
2023/05/12 04:06:30;;;;;;;11.02;6.45;;;;;;;;;;6205478;23;20328;-81
2023/05/12 04:08:58;;;;;;;11.70;7.22;;;;;;;;;;6204757;23;20570;-82
2023/05/12 04:11:31;;;;;;;;;;;;;;;;;;6206664;23;20056;-81
2023/05/12 04:14:05;;;;;;;11.52;6.50;;;;;;;;;;6205594;23;19990;-82
2023/05/12 04:16:34;;;;;;;11.82;7.35;;;;;;;;;;6205896;23;20123;-81
2023/05/12 04:19:02;;;;;;;9.05;6.65;;;;;;;;;;6208244;23;20095;-82
2023/05/12 04:21:42;;;;;;;14.60;6.93;;;;;;;;;;6207959;23;20031;-82
2023/05/12 04:24:15;;;;;;;9.50;6.88;;;;;;;;;;6208129;23;20091;-83
2023/05/12 04:26:49;;;;;;;9.50;7.10;;;;;;;;;;6207251;23;20025;-80
2023/05/12 04:29:23;;;;;;;8.50;6.63;;;;;;;;;;6207054;23;20028;-80
2023/05/12 04:31:50;;;;;;;13.38;7.43;;;;;;;;;;6207199;23;20422;-81
2023/05/12 04:34:17;;;;;;;19.52;7.70;;;;;;;;;;6206649;23;20024;-81
2023/05/12 04:36:51;;;;;;;17.88;6.68;;;;;;;;;;6205412;23;20031;-82
2023/05/12 04:39:19;;;;;;;14.13;6.93;;;;;;;;;;6204864;23;20025;-80
2023/05/12 04:41:52;;;;;;;16.45;7.00;;;;;;;;;;6206115;23;20542;-81
2023/05/12 04:44:20;;;;;;;15.50;6.43;;;;;;;;;;6206736;23;20027;-80
2023/05/12 04:46:52;;;;;;;10.93;6.30;;;;;;;;;;6206339;23;20025;-81
2023/05/12 04:49:25;;;;;;;10.00;6.70;;;;;;;;;;6182106;23;20397;-81
2023/05/12 04:51:52;;;;;;;11.52;7.28;;;;;;;;;;6208691;23;20024;-80
2023/05/12 04:54:26;;;;;;;9.05;6.75;;;;;;;;;;6210939;23;20028;-80
2023/05/12 04:56:54;;;;;;;17.10;7.45;;;;;;;;;;6210058;23;20025;-81
2023/05/12 04:59:21;;;;;;;8.82;6.70;;;;;;;;;;6210570;23;20474;-81
2023/05/12 05:01:54;;;;;;;11.75;6.45;;;;;;;;;;6185672;23;20025;-81
2023/05/12 05:04:22;;;;;;;11.48;6.88;;;;;;;;;;6210848;23;20025;-81
2023/05/12 05:06:49;;;;;;;14.85;7.05;;;;;;;;;;6209698;23;20033;-81
2023/05/12 05:09:23;;;;;;;9.10;6.43;;;;;;;;;;6211394;23;20027;-80
2023/05/12 05:11:50;;;;;;;12.32;6.85;;;;;;;;;;6210205;23;20703;-81
2023/05/12 05:14:25;;;;;;;8.73;5.95;;;;;;;;;;6210192;23;20683;-81
2023/05/12 05:16:52;;;;;;;10.02;6.75;;;;;;;;;;6210074;23;20056;-81
2023/05/12 05:19:20;;;;;;;11.10;7.10;;;;;;;;;;6210905;23;20060;-80
2023/05/12 05:22:20;;;;;;;9.00;6.30;;;;;;;;;;6210755;23;20024;-81
2023/05/12 05:24:47;;;;;;;12.48;6.78;;;;;;;;;;6210330;23;20024;-81
2023/05/12 05:27:21;;;;;;;17.52;6.43;;;;;;;;;;6211050;23;20052;-81
2023/05/12 05:29:49;;;;;;;9.20;6.85;;;;;;;;;;6210857;23;20035;-80
2023/05/12 05:32:16;;;;;;;13.55;6.95;;;;;;;;;;6210420;23;20075;-81
2023/05/12 05:34:49;;;;;;;11.60;6.35;;;;;;;;;;6209785;23;20024;-80
2023/05/12 05:37:23;;;;;;;15.50;7.10;;;;;;;;;;6210794;23;20092;-81
2023/05/12 05:39:57;;;;;;;13.18;6.50;;;;;;;;;;6211546;23;20023;-81
2023/05/12 05:42:31;;;;;;;13.23;6.95;;;;;;;;;;6210102;23;20078;-81
2023/05/12 05:44:58;;;;;;;15.55;5.97;;;;;;;;;;6210667;23;20029;-81
2023/05/12 05:47:27;;;;;;;11.43;5.70;;;;;;;;;;6183410;23;20024;-81
2023/05/12 05:50:00;;;;;;;9.35;6.22;;;;;;;;;;6210216;23;20432;-81
2023/05/12 05:52:28;;;;;;;9.20;5.10;;;;;;;;;;6210447;23;20425;-81
2023/05/12 05:54:55;;;;;;;10.90;4.57;;;;;;;;;;6209765;23;20047;-81
2023/05/12 05:57:31;;;;;;;8.05;4.80;;;;;;;;;;6210492;23;20032;-81
2023/05/12 05:59:58;;;;;;;8.77;4.65;;;;;;;;;;6210330;23;20079;-81
2023/05/12 06:02:25;;;;;;;11.02;4.43;;;;;;;;;;6210159;23;20059;-80
2023/05/12 06:05:00;;;;;;;8.27;4.35;;;;;;;;;;6209676;23;20458;-81
2023/05/12 06:07:27;;;;;;;6.25;4.18;;;;;;;;;;6209994;23;20032;-81
2023/05/12 06:10:00;;;;;;;7.85;4.55;;;;;;;;;;6210169;23;20024;-82
2023/05/12 06:12:27;;;;;;;11.13;4.40;;;;;;;;;;6210312;23;20075;-82
2023/05/12 06:14:55;;;;;;;14.40;4.22;;;;;;;;;;6209110;23;20024;-81
2023/05/12 06:17:28;;;;;;;9.85;3.97;;;;;;;;;;6209462;23;20135;-81
2023/05/12 06:19:58;;;;;;;13.13;4.47;;;;;;;;;;6209927;23;20028;-81
2023/05/12 06:22:41;;;;;;;9.38;3.92;;;;;;;;;;6210703;23;20021;-81
2023/05/12 06:25:08;;;;;;;6.60;3.67;;;;;;;;;;6183315;23;20115;-81
2023/05/12 06:27:41;;;;;;;9.38;3.50;;;;;;;;;;6210440;23;20028;-81
2023/05/12 06:30:09;;;;;;;8.07;3.47;;;;;;;;;;6184265;23;20585;-81
2023/05/12 06:32:36;;;;;;;10.13;3.60;;;;;;;;;;6209645;23;20028;-81
2023/05/12 06:35:11;;;;;;;9.75;3.80;;;;;;;;;;6210060;23;20017;-82
2023/05/12 06:37:38;;;;;;;;;;;;;;;;;;6210370;23;20103;-83
2023/05/12 06:40:06;;;;;;;8.90;3.80;;;;;;;;;;6210406;23;19923;-82
2023/05/12 06:42:39;;;;;;;12.77;3.92;;;;;;;;;;6184803;23;20024;-82
2023/05/12 06:45:07;;;;;;;6.88;3.28;;;;;;;;;;6210108;23;20067;-82
2023/05/12 06:47:40;;;;;;;8.60;3.22;;;;;;;;;;6209004;23;20070;-82
2023/05/12 06:50:08;;;;;;;7.68;3.38;;;;;;;;;;6209714;23;20035;-81
2023/05/12 06:52:36;;;;;;;10.63;3.40;;;;;;;;;;6210018;23;20099;-81
2023/05/12 06:55:09;;;;;;;6.18;3.33;;;;;;;;;;6209728;23;20083;-82
2023/05/12 06:57:36;;;;;;;5.15;3.30;;;;;;;;;;6209250;23;20497;-81
2023/05/12 07:00:11;;;;;;;10.13;3.30;;;;;;;;;;6208469;23;20132;-81
2023/05/12 07:02:39;;;;;;;7.78;3.40;;;;;;;;;;6208853;23;20111;-81
2023/05/12 07:05:06;;;;;;;7.78;3.20;;;;;;;;;;6209447;23;20044;-81
2023/05/12 07:07:40;;;;;;;7.32;3.28;;;;;;;;;;6209370;23;20028;-81
2023/05/12 07:10:08;;;;;;;7.07;3.15;;;;;;;;;;6209796;23;20024;-81
2023/05/12 07:12:41;;;;;;;8.63;3.40;;;;;;;;;;6209498;23;20416;-80
2023/05/12 07:15:09;;;;;;;9.32;3.47;;;;;;;;;;6209611;23;20060;-81
2023/05/12 07:17:42;;;;;;;6.18;3.50;;;;;;;;;;6209023;23;20085;-81
2023/05/12 07:20:16;;;;;;;11.40;3.38;;;;;;;;;;6209199;23;20025;-81
2023/05/12 07:22:57;;;;;;;7.90;3.38;;;;;;;;;;6185138;23;20051;-81
2023/05/12 07:25:24;;;;;;;6.93;3.05;;;;;;;;;;6209599;23;20020;-81
2023/05/12 07:27:59;;;;;;;8.95;3.28;;;;;;;;;;6209727;23;20025;-81
2023/05/12 07:30:26;;;;;;;6.55;3.17;;;;;;;;;;6209734;23;20032;-81
2023/05/12 07:32:53;;;;;;;5.55;3.15;;;;;;;;;;6208584;23;20071;-82
2023/05/12 07:35:27;;;;;;;6.15;3.08;;;;;;;;;;6209886;23;20052;-81
2023/05/12 07:37:54;;;;;;;6.75;2.72;;;;;;;;;;6208974;23;20029;-81
2023/05/12 07:40:21;;;;;;;8.40;3.22;;;;;;;;;;6209859;23;20100;-81
2023/05/12 07:42:54;;;;;;;4.78;3.00;;;;;;;;;;6210161;23;20413;-81
2023/05/12 07:45:23;;;;;;;6.00;3.10;;;;;;;;;;6210148;23;20051;-82
2023/05/12 07:47:57;;;;;;;16.48;3.63;;;;;;;;;;6208481;23;20346;-81
2023/05/12 07:50:25;;;;;;;4.88;3.30;;;;;;;;;;6209459;23;20031;-82
2023/05/12 07:52:52;;;;;;;4.40;3.03;;;;;;;;;;6209140;23;20401;-82
2023/05/12 07:55:26;;;;;;;3.65;2.88;;;;;;;;;;6209433;23;20451;-81
2023/05/12 07:57:56;;;;;;;7.60;3.00;;;;;;;;;;6208954;23;20024;-81
2023/05/12 08:00:23;;;;;;;6.85;2.78;;;;;;;;;;6209052;23;20111;-81
2023/05/12 08:02:56;;;;;;;7.13;3.20;;;;;;;;;;6208903;23;20270;-81
2023/05/12 08:05:24;;;;;;;5.43;2.95;;;;;;;;;;6209519;23;20017;-81
2023/05/12 08:07:51;;;;;;;4.75;2.90;;;;;;;;;;6209754;23;20021;-81
2023/05/12 08:10:28;;;;;;;6.10;3.03;;;;;;;;;;6208574;23;20028;-81
2023/05/12 08:12:55;;;;;;;7.78;3.15;;;;;;;;;;6209506;23;20021;-81
2023/05/12 08:15:23;;;;;;;6.35;2.97;;;;;;;;;;6182839;23;20492;-81
2023/05/12 08:17:56;;;;;;;9.20;2.90;;;;;;;;;;6210584;23;20067;-80
2023/05/12 08:20:24;;;;;;;10.40;3.20;;;;;;;;;;6184027;23;20123;-81
2023/05/12 08:22:57;;;;;;;6.88;3.13;;;;;;;;;;6211464;23;20042;-81
2023/05/12 08:25:26;;;;;;;8.05;3.05;;;;;;;;;;6211544;23;20051;-81
2023/05/12 08:27:54;;;;;;;4.18;2.78;;;;;;;;;;6210474;23;20470;-80
2023/05/12 08:30:28;;;;;;;10.70;3.65;;;;;;;;;;6211355;23;20079;-80
2023/05/12 08:32:56;;;;;;;9.23;2.95;;;;;;;;;;6209993;23;20095;-80
2023/05/12 08:35:30;;;;;;;6.00;3.33;;;;;;;;;;6211255;23;20036;-82
2023/05/12 08:37:58;;;;;;;12.30;3.05;;;;;;;;;;6211489;23;20143;-80
2023/05/12 08:40:26;;;;;;;6.47;3.00;;;;;;;;;;6211575;23;20479;-81
2023/05/12 08:43:07;;;;;;;6.78;2.97;;;;;;;;;;6210384;23;20066;-80
2023/05/12 08:45:38;;;;;;;8.55;3.42;;;;;;;;;;6211694;23;20021;-81
2023/05/12 08:48:12;;;;;;;5.65;2.97;;;;;;;;;;6210635;23;20100;-79
2023/05/12 08:50:40;;;;;;;9.48;3.10;;;;;;;;;;6184688;23;20079;-81
2023/05/12 08:53:15;;;;;;;6.32;3.05;;;;;;;;;;6210424;23;20103;-81
2023/05/12 08:55:43;;;;;;;5.70;3.00;;;;;;;;;;6211325;23;20024;-82
2023/05/12 08:58:37;;;;;;;6.10;3.20;;;;;;;;;;6210091;23;20350;-82
2023/05/12 09:01:10;;;;;;;4.65;2.90;;;;;;;;;;6210547;23;20032;-81
2023/05/12 09:03:45;;;;;;;6.20;3.33;;;;;;;;;;6210557;23;20529;-81
2023/05/12 09:06:19;;;;;;;7.78;3.08;;;;;;;;;;6185616;23;20035;-80
2023/05/12 09:08:52;;;;;;;9.85;3.30;;;;;;;;;;6209086;23;20509;-80
2023/05/12 09:11:20;;;;;;;6.63;2.88;;;;;;;;;;6210537;23;20107;-81
2023/05/12 09:14:01;;;;;;;5.32;2.90;;;;;;;;;;6211086;23;20525;-81
2023/05/12 09:16:29;;;;;;;7.57;3.42;;;;;;;;;;6209930;23;20075;-80
2023/05/12 09:19:03;;;;;;;5.88;3.40;;;;;;;;;;6210286;23;20052;-81
2023/05/12 09:21:40;;;;;;;9.57;3.47;;;;;;;;;;6210102;23;20512;-81
2023/05/12 09:24:32;;;;;;;9.32;3.13;;;;;;;;;;6210315;23;20021;-81
2023/05/12 09:26:59;;;;;;;6.63;3.10;;;;;;;;;;6210342;23;20020;-80
2023/05/12 09:29:34;;;;;;;6.63;3.28;;;;;;;;;;6209625;23;20476;-81
2023/05/12 09:32:14;;;;;;;7.30;3.70;;;;;;;;;;6211079;23;20021;-80
2023/05/12 09:34:50;;;;;;;5.72;3.67;;;;;;;;;;6186082;23;20107;-81
2023/05/12 09:37:30;;;;;;;5.63;3.17;;;;;;;;;;6210317;23;20025;-82
2023/05/12 09:40:04;;;;;;;6.68;3.45;;;;;;;;;;6210896;23;20107;-81
2023/05/12 09:42:32;;;;;;;6.75;3.03;;;;;;;;;;6210863;23;20027;-81
2023/05/12 09:45:03;;;;;;;7.65;3.22;;;;;;;;;;6209902;23;20540;-81
2023/05/12 09:47:38;;;;;;;7.65;3.17;;;;;;;;;;6210055;23;20099;-80
2023/05/12 09:50:11;;;;;;;6.75;3.03;;;;;;;;;;6210432;23;20020;-81
2023/05/12 09:52:45;;;;;;;7.80;3.38;;;;;;;;;;6210408;23;20020;-80
2023/05/12 09:55:12;;;;;;;5.63;3.10;;;;;;;;;;6210355;23;20044;-81
2023/05/12 09:57:47;;;;;;;8.85;3.03;;;;;;;;;;6210731;23;20028;-81
2023/05/12 10:00:16;;;;;;;6.50;3.28;;;;;;;;;;6183756;23;20454;-80
2023/05/12 10:03:10;;;;;;;9.10;3.78;;;;;;;;;;6209725;23;20029;-80
2023/05/12 10:05:38;;;;;;;7.65;3.80;;;;;;;;;;6210890;23;20021;-81
2023/05/12 10:08:14;;;;;;;4.78;3.50;;;;;;;;;;6211725;23;20052;-81
2023/05/12 10:10:41;;;;;;;6.72;3.17;;;;;;;;;;6211130;23;20544;-82
2023/05/12 10:13:12;;;;;;;;;;;;;;;;;;6211177;23;20103;-81
2023/05/12 10:15:47;;;;;;;7.07;3.50;;;;;;;;;;6210403;23;20002;-81
2023/05/12 10:18:16;;;;;;;8.77;3.42;;;;;;;;;;6209963;23;20096;-81
2023/05/12 10:20:57;;;;;;;9.00;3.53;;;;;;;;;;6209823;23;20036;-80
2023/05/12 10:23:31;;;;;;;8.43;3.35;;;;;;;;;;6209280;23;20514;-82
2023/05/12 10:26:06;;;;;;;10.50;3.60;;;;;;;;;;6211443;23;20079;-81
2023/05/12 10:28:33;;;;;;;8.27;3.05;;;;;;;;;;6184003;23;20439;-81
2023/05/12 10:31:00;;;;;;;13.15;3.22;;;;;;;;;;6209862;23;20143;-82
2023/05/12 10:33:33;;;;;;;4.65;3.15;;;;;;;;;;6209938;23;20031;-82
2023/05/12 10:36:01;;;;;;;13.27;3.40;;;;;;;;;;6209791;23;20059;-81
2023/05/12 10:38:36;;;;;;;11.52;3.20;;;;;;;;;;6210053;23;20056;-81
2023/05/12 10:41:05;;;;;;;7.90;3.40;;;;;;;;;;6183713;23;20032;-82
2023/05/12 10:43:44;;;;;;;7.00;2.97;;;;;;;;;;6209934;23;20135;-83
2023/05/12 10:46:19;;;;;;;8.68;3.35;;;;;;;;;;6210023;23;20055;-81
2023/05/12 10:48:59;;;;;;;8.38;3.35;;;;;;;;;;6209188;23;20028;-81
2023/05/12 10:51:30;;;;;;;7.15;3.40;;;;;;;;;;6209096;23;20079;-80
2023/05/12 10:54:04;;;;;;;5.60;3.13;;;;;;;;;;6210219;23;20027;-80
2023/05/12 10:56:40;;;;;;;7.05;3.53;;;;;;;;;;6209686;23;20025;-82
2023/05/12 10:59:19;;;;;;;14.48;3.45;;;;;;;;;;6209847;23;20020;-81
2023/05/12 11:01:57;;;;;;;6.40;3.30;;;;;;;;;;6209436;23;20516;-82
2023/05/12 11:04:35;;;;;;;4.32;3.00;;;;;;;;;;6209467;23;20414;-83
2023/05/12 11:07:06;;;;;;;10.02;3.17;;;;;;;;;;6209678;23;20020;-83
2023/05/12 11:09:41;;;;;;;9.23;3.03;;;;;;;;;;6209871;23;20034;-82
2023/05/12 11:12:25;;;;;;;7.78;3.15;;;;;;;;;;6209988;23;20516;-81
2023/05/12 11:15:00;;;;;;;5.38;3.15;;;;;;;;;;6209853;23;20017;-81
2023/05/12 11:17:34;;;;;;;10.40;3.35;;;;;;;;;;6209367;23;20023;-81
2023/05/12 11:20:01;;;;;;;5.60;3.38;;;;;;;;;;6209540;23;20029;-81
2023/05/12 11:22:42;;;;;;;9.18;3.30;;;;;;;;;;6209385;23;20451;-81
2023/05/12 11:25:10;;;;;;;4.75;2.72;;;;;;;;;;6210049;23;20396;-81
2023/05/12 11:27:48;;;;;;;5.85;3.25;;;;;;;;;;6210545;23;20017;-82
2023/05/12 11:30:18;;;;;;;9.05;3.20;;;;;;;;;;6209522;23;20358;-83
2023/05/12 11:33:01;;;;;;;13.60;3.03;;;;;;;;;;6208992;23;20056;-82
2023/05/12 11:35:32;;;;;;;6.47;3.10;;;;;;;;;;6209629;23;20021;-81
2023/05/12 11:38:14;;;;;;;6.13;3.25;;;;;;;;;;6185337;23;20075;-82
2023/05/12 11:40:49;;;;;;;8.18;3.50;;;;;;;;;;6209005;23;20078;-82
2023/05/12 11:43:19;;;;;;;7.35;2.97;;;;;;;;;;6209070;23;20536;-81
2023/05/12 11:45:56;;;;;;;6.88;3.05;;;;;;;;;;6209481;23;20021;-82
2023/05/12 11:48:32;;;;;;;9.05;3.15;;;;;;;;;;6209029;23;20039;-81
2023/05/12 11:51:05;;;;;;;6.80;2.90;;;;;;;;;;6209474;23;20079;-81
2023/05/12 11:53:34;;;;;;;6.00;2.78;;;;;;;;;;6209404;23;20021;-81
2023/05/12 11:56:08;;;;;;;12.95;3.15;;;;;;;;;;6210079;23;20063;-82
2023/05/12 11:58:35;;;;;;;4.15;3.05;;;;;;;;;;6208820;23;20059;-83
2023/05/12 12:01:12;;;;;;;4.60;2.80;;;;;;;;;;6209415;23;20044;-81
2023/05/12 12:03:47;;;;;;;4.95;2.88;;;;;;;;;;6208661;23;20454;-81
2023/05/12 12:06:21;;;;;;;8.73;2.97;;;;;;;;;;6209307;23;20025;-81
2023/05/12 12:08:52;;;;;;;5.65;2.70;;;;;;;;;;6209426;23;20044;-82
2023/05/12 12:11:20;;;;;;;8.13;3.30;;;;;;;;;;6210386;23;20116;-82
2023/05/12 12:13:55;;;;;;;8.48;2.92;;;;;;;;;;6209230;23;20357;-82
2023/05/12 12:16:31;;;;;;;11.10;2.90;;;;;;;;;;6208855;23;20017;-83
2023/05/12 12:19:07;;;;;;;11.25;3.00;;;;;;;;;;6209348;23;20025;-83
2023/05/12 12:21:47;;;;;;;6.85;2.83;;;;;;;;;;6208133;23;20156;-83
2023/05/12 12:24:22;;;;;;;7.82;2.95;;;;;;;;;;6209465;23;20111;-82
2023/05/12 12:26:49;;;;;;;5.85;3.17;;;;;;;;;;6209802;23;20036;-82
2023/05/12 12:29:17;;;;;;;7.63;3.03;;;;;;;;;;6209551;23;20095;-82
2023/05/12 12:31:50;;;;;;;6.50;2.70;;;;;;;;;;6184100;23;20049;-81
2023/05/12 12:34:18;;;;;;;;;;;;;;;;;;6210217;23;20025;-81
2023/05/12 12:36:52;;;;;;;4.93;2.70;;;;;;;;;;6209000;23;20617;-81
2023/05/12 12:39:20;;;;;;;5.97;2.80;;;;;;;;;;6210041;23;20390;-81
2023/05/12 12:41:47;;;;;;;7.25;2.88;;;;;;;;;;6209876;23;20020;-81
2023/05/12 12:44:21;;;;;;;4.70;2.30;;;;;;;;;;6210511;23;20422;-81
2023/05/12 12:46:49;;;;;;;5.55;2.60;;;;;;;;;;6208734;23;20538;-80
2023/05/12 12:49:22;;;;;;;5.45;2.58;;;;;;;;;;6210021;23;20449;-80
2023/05/12 12:51:50;;;;;;;8.07;2.47;;;;;;;;;;6209370;23;20100;-81
2023/05/12 12:54:17;;;;;;;3.22;2.20;;;;;;;;;;6209234;23;20021;-80
2023/05/12 12:56:50;;;;;;;4.95;2.50;;;;;;;;;;6209008;23;20044;-82
2023/05/12 12:59:17;;;;;;;15.38;3.13;;;;;;;;;;6183241;23;20031;-81
2023/05/12 13:01:52;;;;;;;5.18;2.20;;;;;;;;;;6208589;23;20028;-83
2023/05/12 13:04:21;;;;;;;;;;;;;;;;;;6210540;23;20024;-83
2023/05/12 13:06:49;;;;;;;6.53;2.60;;;;;;;;;;6210340;23;19981;-82
2023/05/12 13:09:23;;;;;;;6.40;2.45;;;;;;;;;;6210970;23;20025;-82
2023/05/12 13:11:50;;;;;;;5.70;2.78;;;;;;;;;;6211280;23;20035;-83
2023/05/12 13:14:17;;;;;;;5.28;2.85;;;;;;;;;;6211620;23;20048;-82
2023/05/12 13:16:51;;;;;;;5.43;2.67;;;;;;;;;;6209465;23;20027;-82
2023/05/12 13:19:19;;;;;;;;;;;;;;;;;;6212138;23;20039;-81
2023/05/12 13:21:59;;;;;;;4.50;2.42;;;;;;;;;;6207540;23;20329;-83
2023/05/12 13:24:26;;;;;;;5.05;2.60;;;;;;;;;;6207494;23;20517;-82
2023/05/12 13:27:00;;;;;;;6.88;2.50;;;;;;;;;;6183015;23;20107;-82
2023/05/12 13:29:28;;;;;;;8.30;2.53;;;;;;;;;;6208159;23;20420;-82
2023/05/12 13:31:55;;;;;;;4.68;2.35;;;;;;;;;;6208565;23;20025;-82
2023/05/12 13:34:28;;;;;;;5.43;2.42;;;;;;;;;;6208176;23;20619;-82
2023/05/12 13:36:56;;;;;;;4.57;2.50;;;;;;;;;;6208458;23;20032;-81
2023/05/12 13:39:29;;;;;;;4.68;2.50;;;;;;;;;;6207411;23;20100;-81
2023/05/12 13:41:57;;;;;;;7.05;2.58;;;;;;;;;;6205906;23;20027;-84
2023/05/12 13:44:24;;;;;;;8.43;2.58;;;;;;;;;;6208055;23;20024;-83
2023/05/12 13:46:57;;;;;;;5.43;2.80;;;;;;;;;;6207441;23;20071;-80
2023/05/12 13:49:25;;;;;;;15.07;2.75;;;;;;;;;;6208081;23;20056;-82
2023/05/12 13:51:58;;;;;;;5.32;2.22;;;;;;;;;;6206872;23;20055;-81
2023/05/12 13:54:26;;;;;;;5.82;2.55;;;;;;;;;;6206595;23;20128;-84
2023/05/12 13:56:55;;;;;;;6.90;2.25;;;;;;;;;;6209928;23;20024;-82
2023/05/12 13:59:30;;;;;;;7.50;2.60;;;;;;;;;;6208619;23;20100;-82
2023/05/12 14:01:58;;;;;;;8.20;2.53;;;;;;;;;;6209994;23;20070;-82
2023/05/12 14:04:32;;;;;;;5.18;2.30;;;;;;;;;;6208759;23;20029;-81
2023/05/12 14:06:59;;;;;;;4.47;2.72;;;;;;;;;;6209114;23;20024;-81
2023/05/12 14:09:27;;;;;;;11.98;3.03;;;;;;;;;;6210070;23;20099;-81
2023/05/12 14:12:01;;;;;;;8.45;2.50;;;;;;;;;;6210472;23;20628;-82
2023/05/12 14:14:28;;;;;;;6.72;2.50;;;;;;;;;;6209909;23;20029;-82
2023/05/12 14:17:01;;;;;;;9.35;3.17;;;;;;;;;;6209903;23;20024;-82
2023/05/12 14:19:29;;;;;;;6.57;2.78;;;;;;;;;;6209595;23;20437;-85
2023/05/12 14:21:56;;;;;;;;;;;;;;;;;;6210293;23;20119;-84
2023/05/12 14:24:44;;;;;;;7.68;2.70;;;;;;;;;;6209524;23;19920;-83
2023/05/12 14:27:12;;;;;;;4.93;2.55;;;;;;;;;;6209292;23;20052;-83
2023/05/12 14:29:45;;;;;;;7.75;2.95;;;;;;;;;;6209615;23;20636;-83
2023/05/12 14:32:13;;;;;;;6.75;2.72;;;;;;;;;;6210305;23;20454;-83
2023/05/12 14:34:40;;;;;;;6.07;2.50;;;;;;;;;;6209664;23;20100;-82
2023/05/12 14:37:13;;;;;;;8.60;3.20;;;;;;;;;;6209282;23;20027;-83
2023/05/12 14:39:41;;;;;;;4.22;2.30;;;;;;;;;;6209660;23;20067;-82
2023/05/12 14:42:22;;;;;;;6.80;2.20;;;;;;;;;;6210105;23;20100;-82
2023/05/12 14:44:49;;;;;;;12.88;2.63;;;;;;;;;;6210210;23;20462;-83
2023/05/12 14:47:24;;;;;;;3.50;2.40;;;;;;;;;;6210252;23;20017;-83
2023/05/12 14:49:51;;;;;;;;;;;;;;;;;;6210101;23;20032;-83
2023/05/12 14:52:24;;;;;;;8.82;3.13;;;;;;;;;;6210134;23;19982;-83
2023/05/12 14:54:58;;;;;;;10.15;3.80;;;;;;;;;;6209331;23;20206;-85
2023/05/12 14:57:26;;;;;;;;;;;;;;;;;;6209892;23;20021;-84
2023/05/12 15:00:00;;;;;;;8.25;3.28;;;;;;;;;;6209806;23;19982;-84
2023/05/12 15:02:27;;;;;;;9.30;3.42;;;;;;;;;;6209943;23;20060;-84
2023/05/12 15:04:55;;;;;;;12.57;3.80;;;;;;;;;;6209250;23;20035;-83
2023/05/12 15:07:28;;;;;;;8.85;3.75;;;;;;;;;;6210053;23;20375;-84